Time;durP1;ratioP1;P1;durP2;ratioP2;P2;SDS_P1;SDS_P2;PMS_P1;PMS_P2;Temp;Humidity;BMP_temperature;BMP_pressure;BME280_temperature;BME280_humidity;BME280_pressure;Samples;Min_cycle;Max_cycle;Signal;HPM_P1;HPM_P2
2020/12/06 00:01:25;;;;;;;54.58;22.27;;;3.10;86.00;;;;;;5071159;28;20032;-65
2020/12/06 00:03:50;;;;;;;59.50;23.17;;;3.10;86.00;;;;;;5072302;28;20096;-65
2020/12/06 00:06:23;;;;;;;51.45;22.20;;;3.20;85.90;;;;;;5070768;28;20086;-66
2020/12/06 00:08:52;;;;;;;52.10;22.90;;;3.20;85.90;;;;;;5071149;28;20473;-67
2020/12/06 00:11:18;;;;;;;65.80;24.27;;;3.30;85.80;;;;;;5070612;28;20055;-64
2020/12/06 00:13:44;;;;;;;63.53;23.90;;;3.30;85.60;;;;;;5072075;28;20473;-65
2020/12/06 00:16:15;;;;;;;58.55;22.25;;;3.30;85.50;;;;;;5070872;28;20511;-66
2020/12/06 00:18:42;;;;;;;62.90;23.98;;;3.30;85.50;;;;;;5071856;28;20068;-66
2020/12/06 00:21:20;;;;;;;55.83;22.10;;;3.20;85.50;;;;;;5070914;28;20033;-66
2020/12/06 00:23:46;;;;;;;55.72;23.33;;;3.20;85.70;;;;;;5070903;28;20037;-65
2020/12/06 00:26:14;;;;;;;54.80;23.50;;;3.10;85.70;;;;;;5071540;28;20021;-65
2020/12/06 00:28:39;;;;;;;62.58;25.02;;;3.10;85.90;;;;;;5072411;28;20090;-65
2020/12/06 00:31:05;;;;;;;67.63;24.33;;;3.10;85.90;;;;;;5074161;28;20032;-65
2020/12/06 00:33:31;;;;;;;65.65;23.52;;;3.10;85.90;;;;;;5075412;28;20047;-64
2020/12/06 00:35:56;;;;;;;64.22;24.80;;;3.20;85.90;;;;;;5074775;28;20041;-65
2020/12/06 00:38:22;;;;;;;64.10;23.30;;;3.20;85.80;;;;;;5075617;28;20081;-65
2020/12/06 00:40:48;;;;;;;65.93;24.38;;;3.20;85.90;;;;;;5056041;28;20032;-65
2020/12/06 00:43:14;;;;;;;65.20;22.83;;;3.20;85.70;;;;;;5075385;28;20043;-65
2020/12/06 00:45:39;;;;;;;64.13;24.75;;;3.20;85.70;;;;;;5074208;28;20103;-65
2020/12/06 00:48:05;;;;;;;56.08;22.70;;;3.20;85.80;;;;;;5057698;28;20051;-65
2020/12/06 00:50:30;;;;;;;59.15;23.05;;;3.20;85.80;;;;;;5055373;28;20029;-66
2020/12/06 00:52:56;;;;;;;59.08;23.45;;;3.20;85.80;;;;;;5074683;28;20158;-65
2020/12/06 00:55:21;;;;;;;57.30;22.55;;;3.20;86.00;;;;;;5061751;28;20035;-66
2020/12/06 00:57:47;;;;;;;61.97;23.98;;;3.10;86.10;;;;;;5075068;28;20036;-65
2020/12/06 01:00:13;;;;;;;70.18;24.92;;;3.20;86.20;;;;;;5075282;28;20052;-65
2020/12/06 01:02:39;;;;;;;59.80;23.25;;;3.20;86.10;;;;;;5075140;28;20543;-65
2020/12/06 01:05:05;;;;;;;56.72;22.25;;;3.20;86.00;;;;;;5075627;28;20136;-65
2020/12/06 01:07:38;;;;;;;56.35;21.70;;;3.30;86.00;;;;;;5075821;28;20064;-65
2020/12/06 01:10:09;;;;;;;63.45;23.40;;;3.30;85.90;;;;;;5074329;28;20086;-65
2020/12/06 01:12:36;;;;;;;62.60;22.25;;;3.30;85.90;;;;;;5075546;28;20032;-66
2020/12/06 01:15:04;;;;;;;51.90;22.20;;;3.30;85.90;;;;;;5074687;28;20052;-66
2020/12/06 01:17:30;;;;;;;55.58;21.83;;;3.30;85.80;;;;;;5075511;28;20028;-66
2020/12/06 01:19:55;;;;;;;53.33;21.73;;;3.30;85.60;;;;;;5074137;28;20067;-66
2020/12/06 01:22:21;;;;;;;57.50;22.55;;;3.30;85.60;;;;;;5075321;28;20033;-65
2020/12/06 01:24:46;;;;;;;60.85;23.00;;;3.20;85.60;;;;;;5074364;28;20028;-64
2020/12/06 01:27:12;;;;;;;53.92;22.67;;;3.20;85.70;;;;;;5075446;28;20032;-65
2020/12/06 01:29:37;;;;;;;49.97;21.35;;;3.20;85.90;;;;;;5075018;28;20077;-66
2020/12/06 01:32:03;;;;;;;59.63;22.92;;;3.20;85.90;;;;;;5074582;28;20041;-66
2020/12/06 01:34:29;;;;;;;55.58;22.25;;;3.10;86.00;;;;;;5074843;28;20027;-66
2020/12/06 01:36:54;;;;;;;55.67;21.60;;;3.10;86.60;;;;;;5074816;28;20032;-65
2020/12/06 01:39:20;;;;;;;55.60;21.80;;;3.10;86.00;;;;;;5073263;28;20037;-65
2020/12/06 01:41:46;;;;;;;53.53;21.77;;;3.10;86.00;;;;;;5074525;28;20063;-64
2020/12/06 01:44:12;;;;;;;59.17;22.70;;;3.10;86.10;;;;;;5056632;28;20024;-65
2020/12/06 01:46:39;;;;;;;59.78;22.05;;;3.10;86.20;;;;;;5074993;28;20024;-65
2020/12/06 01:49:06;;;;;;;60.33;23.50;;;3.20;86.20;;;;;;5055757;28;20060;-64
2020/12/06 01:51:32;;;;;;;64.28;23.20;;;3.20;86.10;;;;;;5074669;28;20037;-65
2020/12/06 01:53:58;;;;;;;59.47;22.50;;;3.20;86.00;;;;;;5068866;28;20029;-65
2020/12/06 01:56:24;;;;;;;60.85;22.20;;;3.30;86.00;;;;;;5074804;28;20121;-64
2020/12/06 01:58:49;;;;;;;62.22;22.58;;;3.30;85.80;;;;;;5074587;28;20106;-65
2020/12/06 02:01:15;;;;;;;59.75;22.92;;;3.30;85.70;;;;;;5073060;28;20041;-64
2020/12/06 02:03:41;;;;;;;63.17;22.63;;;3.30;85.60;;;;;;5074470;28;20032;-64
2020/12/06 02:06:07;;;;;;;62.78;22.27;;;3.20;85.70;;;;;;5073881;28;20039;-65
2020/12/06 02:08:36;;;;;;;55.75;21.85;;;3.20;85.80;;;;;;5056136;28;20111;-65
2020/12/06 02:11:05;;;;;;;60.42;21.98;;;3.20;85.90;;;;;;5073946;28;20036;-65
2020/12/06 02:13:30;;;;;;;66.80;22.90;;;3.20;85.70;;;;;;5073392;28;20048;-65
2020/12/06 02:15:56;;;;;;;63.90;23.60;;;3.10;85.80;;;;;;5074325;28;20580;-65
2020/12/06 02:18:22;;;;;;;61.80;22.70;;;3.20;86.00;;;;;;5073646;28;20044;-65
2020/12/06 02:20:48;;;;;;;62.05;22.65;;;3.20;86.00;;;;;;5073079;28;20028;-64
2020/12/06 02:23:14;;;;;;;67.60;23.23;;;3.20;85.90;;;;;;5073147;28;20469;-65
2020/12/06 02:25:40;;;;;;;55.53;21.58;;;3.10;85.90;;;;;;5074317;28;20033;-65
2020/12/06 02:28:09;;;;;;;64.55;22.02;;;3.10;85.90;;;;;;5073990;28;20547;-65
2020/12/06 02:30:35;;;;;;;68.55;23.05;;;3.00;85.80;;;;;;5072975;28;20072;-65
2020/12/06 02:33:02;;;;;;;60.75;22.73;;;3.00;86.00;;;;;;5074140;28;20107;-65
2020/12/06 02:35:27;;;;;;;63.33;24.23;;;3.00;86.20;;;;;;5073221;28;20031;-64
2020/12/06 02:37:53;;;;;;;70.55;24.90;;;3.00;86.20;;;;;;5073643;28;20025;-65
2020/12/06 02:40:19;;;;;;;71.20;25.10;;;3.10;86.20;;;;;;5072679;28;20037;-65
2020/12/06 02:42:44;;;;;;;67.72;24.02;;;3.10;86.20;;;;;;5073917;28;20380;-65
2020/12/06 02:45:10;;;;;;;61.60;22.63;;;3.10;86.00;;;;;;5073769;28;20505;-65
2020/12/06 02:47:35;;;;;;;71.82;24.60;;;3.10;85.80;;;;;;5073053;28;20446;-65
2020/12/06 02:50:01;;;;;;;68.22;23.95;;;3.10;85.90;;;;;;5072199;28;20526;-65
2020/12/06 02:52:27;;;;;;;65.60;23.88;;;3.10;85.80;;;;;;5072531;28;20495;-65
2020/12/06 02:54:53;;;;;;;60.72;23.25;;;3.10;85.80;;;;;;5057505;28;20029;-65
2020/12/06 02:57:18;;;;;;;62.25;22.48;;;3.10;85.90;;;;;;5070815;28;20102;-65
2020/12/06 02:59:44;;;;;;;65.75;22.30;;;3.10;85.90;;;;;;5072886;28;20036;-66
2020/12/06 03:02:10;;;;;;;62.88;23.15;;;3.20;86.00;;;;;;5072501;28;20102;-64
2020/12/06 03:04:35;;;;;;;60.85;22.13;;;3.20;85.90;;;;;;5073389;28;20017;-65
2020/12/06 03:07:01;;;;;;;67.85;22.17;;;3.20;85.80;;;;;;5072764;28;20028;-65
2020/12/06 03:09:26;;;;;;;64.60;22.92;;;3.20;85.70;;;;;;5072172;28;20021;-64
2020/12/06 03:11:52;;;;;;;68.32;23.55;;;3.30;85.70;;;;;;5073641;28;20052;-65
2020/12/06 03:14:18;;;;;;;63.70;23.88;;;3.30;85.60;;;;;;5054570;28;20036;-65
2020/12/06 03:16:43;;;;;;;62.10;23.60;;;3.30;85.60;;;;;;5055064;28;20028;-65
2020/12/06 03:19:09;;;;;;;59.90;23.67;;;3.30;85.60;;;;;;5072795;28;20021;-64
2020/12/06 03:21:34;;;;;;;68.55;24.80;;;3.30;85.60;;;;;;5072111;28;20029;-65
2020/12/06 03:24:00;;;;;;;58.38;22.52;;;3.40;85.60;;;;;;5072868;28;20032;-64
2020/12/06 03:26:25;;;;;;;61.08;23.38;;;3.30;85.50;;;;;;5073136;28;20074;-65
2020/12/06 03:28:51;;;;;;;58.08;22.88;;;3.40;85.50;;;;;;5072257;28;20477;-65
2020/12/06 03:31:17;;;;;;;55.55;21.92;;;3.30;85.40;;;;;;5072555;28;20021;-65
2020/12/06 03:33:42;;;;;;;61.95;22.85;;;3.30;85.50;;;;;;5053947;28;20028;-65
2020/12/06 03:36:08;;;;;;;58.38;23.23;;;3.30;85.60;;;;;;5072914;28;20099;-65
2020/12/06 03:38:34;;;;;;;63.58;23.48;;;3.30;85.60;;;;;;5071866;28;20487;-64
2020/12/06 03:40:59;;;;;;;56.05;23.02;;;3.30;85.60;;;;;;5072135;28;20036;-65
2020/12/06 03:43:25;;;;;;;63.50;23.90;;;3.40;85.60;;;;;;5072795;28;20028;-65
2020/12/06 03:45:51;;;;;;;58.92;21.48;;;3.40;85.50;;;;;;5072227;28;20060;-65
2020/12/06 03:48:16;;;;;;;57.42;21.30;;;3.30;85.40;;;;;;5054570;28;20397;-65
2020/12/06 03:50:42;;;;;;;60.65;23.10;;;3.30;85.40;;;;;;5071481;28;20044;-65
2020/12/06 03:53:07;;;;;;;68.38;23.33;;;3.20;85.60;;;;;;5070494;28;20107;-65
2020/12/06 03:55:33;;;;;;;57.33;22.63;;;3.10;85.80;;;;;;5052501;28;20029;-64
2020/12/06 03:57:58;;;;;;;73.65;24.63;;;3.10;86.50;;;;;;5059483;28;20044;-65
2020/12/06 04:00:24;;;;;;;61.50;22.60;;;3.20;85.90;;;;;;5071748;28;20024;-65
2020/12/06 04:02:52;;;;;;;69.50;24.83;;;3.20;85.80;;;;;;5071431;28;20044;-65
2020/12/06 04:05:21;;;;;;;63.80;24.27;;;3.20;85.90;;;;;;5072600;28;20029;-65
2020/12/06 04:07:48;;;;;;;69.35;23.75;;;3.30;85.90;;;;;;5071901;28;20031;-65
2020/12/06 04:10:14;;;;;;;71.90;24.67;;;3.20;85.90;;;;;;5072202;28;20419;-65
2020/12/06 04:12:40;;;;;;;66.55;23.85;;;3.30;85.80;;;;;;5072649;28;20024;-65
2020/12/06 04:15:06;;;;;;;77.85;25.13;;;3.30;86.00;;;;;;5072509;28;20495;-65
2020/12/06 04:17:31;;;;;;;68.18;25.05;;;3.30;85.70;;;;;;5071197;28;20067;-65
2020/12/06 04:19:57;;;;;;;74.03;24.58;;;3.30;85.60;;;;;;5071363;28;20103;-65
2020/12/06 04:22:23;;;;;;;65.05;23.65;;;3.30;85.40;;;;;;5072116;28;20032;-64
2020/12/06 04:24:48;;;;;;;75.80;25.33;;;3.30;85.50;;;;;;5072312;28;20338;-65
2020/12/06 04:27:14;;;;;;;82.28;27.88;;;3.30;85.80;;;;;;5072346;28;20400;-65
2020/12/06 04:29:39;;;;;;;76.18;25.58;;;3.20;85.60;;;;;;5071376;28;20033;-65
2020/12/06 04:32:05;;;;;;;68.47;24.73;;;3.20;85.60;;;;;;5071978;28;20396;-65
2020/12/06 04:34:30;;;;;;;73.88;25.63;;;3.20;85.70;;;;;;5054213;28;20032;-65
2020/12/06 04:36:56;;;;;;;70.78;23.67;;;3.20;85.80;;;;;;5070995;28;20090;-65
2020/12/06 04:39:21;;;;;;;70.80;25.05;;;3.30;85.80;;;;;;5071777;28;20062;-65
2020/12/06 04:41:47;;;;;;;71.40;24.88;;;3.20;85.60;;;;;;5071093;28;20044;-65
2020/12/06 04:44:12;;;;;;;67.85;24.88;;;3.20;85.80;;;;;;5072179;28;20021;-65
2020/12/06 04:46:39;;;;;;;76.22;26.52;;;3.30;85.90;;;;;;5071686;28;20021;-65
2020/12/06 04:49:05;;;;;;;76.90;25.70;;;3.30;85.90;;;;;;5071902;28;20386;-64
2020/12/06 04:51:42;;;;;;;80.00;27.00;;;3.30;85.70;;;;;;5071028;28;20028;-65
2020/12/06 04:54:08;;;;;;;81.97;27.25;;;3.30;85.60;;;;;;5045239;28;20029;-65
2020/12/06 04:56:37;;;;;;;72.88;26.08;;;3.30;85.40;;;;;;5071566;28;20048;-65
2020/12/06 04:59:03;;;;;;;87.82;26.80;;;3.30;85.40;;;;;;5071641;28;20026;-64
2020/12/06 05:01:39;;;;;;;73.93;24.45;;;3.30;85.60;;;;;;5052964;28;20020;-65
2020/12/06 05:04:12;;;;;;;81.78;25.73;;;3.30;85.60;;;;;;5071177;28;20113;-65
2020/12/06 05:06:40;;;;;;;85.25;26.52;;;3.30;85.60;;;;;;5071783;28;20056;-65
2020/12/06 05:09:08;;;;;;;77.80;25.80;;;3.30;85.60;;;;;;5071320;28;20065;-65
2020/12/06 05:11:35;;;;;;;79.97;26.23;;;3.30;85.80;;;;;;5071209;28;20036;-65
2020/12/06 05:14:01;;;;;;;81.03;27.05;;;3.30;85.90;;;;;;5071001;28;20079;-65
2020/12/06 05:16:29;;;;;;;71.60;25.30;;;3.20;85.70;;;;;;5074867;28;20038;-64
2020/12/06 05:18:54;;;;;;;83.32;26.23;;;3.20;85.80;;;;;;5075275;28;20024;-65
2020/12/06 05:21:36;;;;;;;79.05;25.58;;;3.30;85.90;;;;;;5074140;28;20139;-65
2020/12/06 05:24:03;;;;;;;81.05;26.55;;;3.30;85.90;;;;;;5074607;28;20033;-65
2020/12/06 05:26:29;;;;;;;86.95;26.17;;;3.30;85.80;;;;;;5075403;28;20071;-65
2020/12/06 05:28:56;;;;;;;90.55;26.80;;;3.40;85.70;;;;;;5074952;28;20021;-63
2020/12/06 05:31:22;;;;;;;89.25;27.63;;;3.40;85.70;;;;;;5073828;28;20141;-65
2020/12/06 05:33:49;;;;;;;86.28;27.45;;;3.40;85.30;;;;;;5075109;28;20028;-65
2020/12/06 05:36:15;;;;;;;92.55;28.17;;;3.40;85.40;;;;;;5074704;28;20020;-65
2020/12/06 05:38:41;;;;;;;87.93;27.92;;;3.40;85.40;;;;;;5074283;28;20074;-65
2020/12/06 05:41:09;;;;;;;84.55;26.92;;;3.30;85.20;;;;;;5074851;28;20032;-65
2020/12/06 05:43:35;;;;;;;88.13;26.90;;;3.30;85.40;;;;;;5074548;28;20024;-65
2020/12/06 05:46:07;;;;;;;77.30;27.50;;;3.30;85.40;;;;;;5055597;28;20024;-65
2020/12/06 05:48:34;;;;;;;86.55;28.70;;;3.20;85.60;;;;;;5074328;28;20020;-66
2020/12/06 05:51:00;;;;;;;73.78;25.80;;;3.20;85.60;;;;;;5059019;28;20470;-65
2020/12/06 05:53:27;;;;;;;66.45;24.85;;;3.20;85.50;;;;;;5054246;28;20021;-65
2020/12/06 05:56:15;;;;;;;71.18;25.13;;;3.20;85.70;;;;;;5071938;28;20016;-65
2020/12/06 05:58:42;;;;;;;71.18;24.77;;;3.20;85.80;;;;;;5073888;28;20049;-65
2020/12/06 06:01:12;;;;;;;80.68;24.63;;;3.20;85.70;;;;;;5073219;28;20040;-65
2020/12/06 06:03:42;;;;;;;80.28;25.00;;;3.20;85.70;;;;;;5074696;28;20425;-65
2020/12/06 06:06:14;;;;;;;68.15;24.05;;;3.20;85.80;;;;;;5074620;28;20045;-65
2020/12/06 06:08:44;;;;;;;75.32;24.60;;;3.20;85.90;;;;;;5074043;28;20024;-65
2020/12/06 06:11:24;;;;;;;80.30;24.60;;;3.20;85.90;;;;;;5073779;28;20116;-65
2020/12/06 06:14:00;;;;;;;68.32;23.88;;;3.30;86.00;;;;;;5074075;28;20465;-65
2020/12/06 06:16:28;;;;;;;71.35;23.70;;;3.30;85.90;;;;;;5073421;28;20039;-65
2020/12/06 06:18:55;;;;;;;68.53;23.70;;;3.30;85.80;;;;;;5074077;28;20028;-65
2020/12/06 06:21:31;;;;;;;74.13;23.42;;;3.40;85.80;;;;;;5073971;28;20161;-65
2020/12/06 06:24:00;;;;;;;99.65;27.98;;;3.40;85.80;;;;;;5073561;28;20068;-65
2020/12/06 06:26:28;;;;;;;68.50;22.38;;;3.40;86.00;;;;;;5061827;28;20354;-65
2020/12/06 06:28:54;;;;;;;67.95;24.00;;;3.50;85.80;;;;;;5071036;28;20058;-65
2020/12/06 06:31:21;;;;;;;85.18;27.25;;;3.40;85.60;;;;;;5073199;28;20045;-65
2020/12/06 06:33:48;;;;;;;80.90;26.08;;;3.40;85.70;;;;;;5073365;28;20111;-65
2020/12/06 06:36:13;;;;;;;74.82;24.65;;;3.40;85.40;;;;;;5072856;28;20028;-66
2020/12/06 06:38:43;;;;;;;76.00;26.08;;;3.30;85.40;;;;;;5073489;28;20388;-66
2020/12/06 06:41:09;;;;;;;75.95;23.92;;;3.30;85.60;;;;;;5072610;28;20032;-64
2020/12/06 06:43:37;;;;;;;68.75;23.00;;;3.30;85.60;;;;;;5073390;28;20035;-66
2020/12/06 06:46:18;;;;;;;92.35;29.80;;;3.30;85.80;;;;;;5073244;28;20028;-65
2020/12/06 06:48:48;;;;;;;85.30;30.33;;;3.30;85.90;;;;;;5073463;28;20115;-65
2020/12/06 06:51:23;;;;;;;114.00;40.20;;;3.20;85.70;;;;;;5072222;28;20032;-65
2020/12/06 06:53:50;;;;;;;117.35;42.25;;;3.20;85.80;;;;;;5073103;28;20052;-65
2020/12/06 06:56:19;;;;;;;87.60;30.42;;;3.20;85.80;;;;;;5073356;28;20032;-65
2020/12/06 06:58:47;;;;;;;77.20;26.05;;;3.20;85.80;;;;;;5073240;28;20028;-65
2020/12/06 07:01:22;;;;;;;70.57;24.80;;;3.20;85.80;;;;;;5073064;28;20468;-65
2020/12/06 07:03:52;;;;;;;78.97;28.23;;;3.30;86.00;;;;;;5072071;28;20495;-65
2020/12/06 07:06:44;;;;;;;73.25;27.45;;;3.30;85.80;;;;;;5073187;28;20142;-65
2020/12/06 07:09:10;;;;;;;60.17;19.43;;;3.20;85.80;;;;;;5072155;28;20392;-65
2020/12/06 07:11:37;;;;;;;87.55;26.35;;;3.30;86.30;;;;;;5072573;28;20052;-65
2020/12/06 07:14:03;;;;;;;76.63;27.15;;;3.20;85.50;;;;;;5073076;28;20089;-65
2020/12/06 07:16:28;;;;;;;89.53;28.35;;;3.20;85.50;;;;;;5054459;28;20416;-65
2020/12/06 07:18:54;;;;;;;88.70;27.58;;;3.10;85.70;;;;;;5073284;28;20112;-67
2020/12/06 07:21:19;;;;;;;78.20;26.83;;;3.10;85.80;;;;;;5072128;28;20086;-67
2020/12/06 07:23:45;;;;;;;88.15;27.45;;;3.20;86.00;;;;;;5072046;28;20044;-67
2020/12/06 07:26:11;;;;;;;86.03;27.02;;;3.20;85.90;;;;;;5072944;28;20115;-65
2020/12/06 07:28:37;;;;;;;78.07;25.48;;;3.20;85.80;;;;;;5066695;28;20482;-65
2020/12/06 07:31:02;;;;;;;76.00;25.20;;;3.20;85.80;;;;;;5070698;28;20033;-65
2020/12/06 07:33:28;;;;;;;72.57;25.17;;;3.20;85.80;;;;;;5072027;28;20032;-66
2020/12/06 07:35:53;;;;;;;81.93;27.10;;;3.30;85.90;;;;;;5072794;28;20056;-66
2020/12/06 07:38:19;;;;;;;78.97;25.50;;;3.30;85.90;;;;;;5067991;28;20040;-64
2020/12/06 07:40:45;;;;;;;79.07;26.70;;;3.30;85.90;;;;;;5057911;28;20040;-64
2020/12/06 07:43:12;;;;;;;89.63;28.77;;;3.30;85.90;;;;;;5056716;28;20021;-64
2020/12/06 07:45:37;;;;;;;102.53;29.58;;;3.30;85.80;;;;;;5066134;28;20063;-64
2020/12/06 07:48:03;;;;;;;108.82;31.98;;;3.30;85.60;;;;;;5072041;28;20060;-64
2020/12/06 07:50:28;;;;;;;139.98;42.92;;;3.20;85.70;;;;;;5064759;28;20028;-64
2020/12/06 07:53:02;;;;;;;109.50;33.00;;;3.30;85.80;;;;;;5072197;28;20033;-64
2020/12/06 07:55:27;;;;;;;125.00;39.28;;;3.20;85.60;;;;;;5071752;28;20385;-65
2020/12/06 07:58:00;;;;;;;105.10;33.65;;;3.20;85.70;;;;;;5054072;28;20028;-66
2020/12/06 08:00:36;;;;;;;89.90;29.85;;;3.20;85.90;;;;;;5071339;28;20377;-64
2020/12/06 08:03:03;;;;;;;102.78;28.80;;;3.20;86.00;;;;;;5072282;28;20024;-65
2020/12/06 08:05:32;;;;;;;99.40;28.92;;;3.20;85.90;;;;;;5072001;28;20028;-64
2020/12/06 08:08:12;;;;;;;98.95;28.50;;;3.20;85.90;;;;;;5071599;28;20048;-64
2020/12/06 08:10:39;;;;;;;106.47;29.58;;;3.20;86.00;;;;;;5071619;28;20023;-65
2020/12/06 08:13:10;;;;;;;116.20;32.10;;;3.20;86.00;;;;;;5071401;28;20207;-64
2020/12/06 08:15:36;;;;;;;107.53;31.20;;;3.20;85.90;;;;;;5071634;28;20063;-64
2020/12/06 08:18:01;;;;;;;107.15;29.15;;;3.10;85.90;;;;;;5071783;28;20500;-64
2020/12/06 08:20:27;;;;;;;113.55;30.98;;;3.10;86.00;;;;;;5071983;28;20107;-64
2020/12/06 08:22:59;;;;;;;120.45;29.80;;;3.10;86.10;;;;;;5053593;28;20036;-63
2020/12/06 08:25:26;;;;;;;172.75;33.10;;;3.10;86.20;;;;;;5072365;28;20119;-64
2020/12/06 08:27:53;;;;;;;222.90;33.15;;;3.10;86.30;;;;;;5092581;28;20476;-64
2020/12/06 08:30:21;;;;;;;195.70;33.78;;;3.10;86.20;;;;;;5077037;28;20040;-65
2020/12/06 08:32:57;;;;;;;123.55;30.38;;;3.00;86.10;;;;;;5072302;28;20033;-64
2020/12/06 08:35:47;;;;;;;164.18;32.67;;;3.00;86.30;;;;;;5071106;28;20037;-64
2020/12/06 08:38:29;;;;;;;201.90;33.63;;;3.00;86.50;;;;;;5068325;28;20021;-64
2020/12/06 08:41:09;;;;;;;287.25;33.53;;;3.00;86.50;;;;;;5070785;28;20457;-65
2020/12/06 08:43:50;;;;;;;458.35;36.47;;;3.00;86.50;;;;;;5072229;28;20078;-64
2020/12/06 08:46:23;;;;;;;269.48;32.28;;;3.00;86.50;;;;;;5071414;28;20036;-67
2020/12/06 08:48:54;;;;;;;444.15;34.70;;;3.00;86.50;;;;;;5072089;28;20039;-65
2020/12/06 08:51:31;;;;;;;293.45;33.83;;;3.00;86.40;;;;;;5069605;28;20077;-64
2020/12/06 08:53:58;;;;;;;348.98;34.85;;;3.00;86.60;;;;;;5074936;28;20071;-65
2020/12/06 08:56:33;;;;;;;301.90;34.63;;;2.90;86.60;;;;;;5058372;28;20068;-65
2020/12/06 08:59:07;;;;;;;362.75;36.75;;;2.90;86.70;;;;;;5088885;28;20070;-65
2020/12/06 09:01:33;;;;;;;217.88;37.25;;;2.90;86.80;;;;;;5075176;28;20056;-65
2020/12/06 09:03:59;;;;;;;363.42;36.15;;;2.90;86.80;;;;;;5075174;28;20024;-64
2020/12/06 09:06:25;;;;;;;236.02;35.38;;;2.90;87.00;;;;;;5075222;28;20020;-64
2020/12/06 09:08:51;;;;;;;274.90;34.67;;;2.90;87.10;;;;;;5072900;28;20020;-64
2020/12/06 09:11:21;;;;;;;199.50;34.85;;;2.90;87.20;;;;;;5063325;28;20021;-64
2020/12/06 09:13:47;;;;;;;320.48;36.58;;;2.90;87.20;;;;;;5075487;28;20043;-64
2020/12/06 09:16:13;;;;;;;271.67;41.00;;;3.00;87.30;;;;;;5070955;28;20048;-64
2020/12/06 09:18:39;;;;;;;267.17;35.63;;;3.00;87.30;;;;;;5075169;28;20028;-64
2020/12/06 09:21:08;;;;;;;290.05;36.42;;;3.00;87.20;;;;;;5074369;28;20032;-65
2020/12/06 09:23:36;;;;;;;223.27;33.13;;;3.10;87.20;;;;;;5074569;28;20033;-64
2020/12/06 09:26:02;;;;;;;414.20;37.42;;;3.10;87.30;;;;;;5074939;28;20490;-64
2020/12/06 09:28:28;;;;;;;456.83;35.63;;;3.10;87.30;;;;;;5074529;28;20044;-64
2020/12/06 09:30:54;;;;;;;409.95;35.28;;;3.10;87.20;;;;;;5074046;28;20420;-65
2020/12/06 09:33:20;;;;;;;321.65;35.90;;;3.10;87.20;;;;;;5074646;28;20044;-64
2020/12/06 09:35:46;;;;;;;268.88;34.33;;;3.20;87.20;;;;;;5074802;28;20061;-64
2020/12/06 09:38:11;;;;;;;317.83;36.60;;;3.10;87.00;;;;;;5073587;28;20032;-65
2020/12/06 09:40:37;;;;;;;232.75;32.72;;;3.20;87.20;;;;;;5073594;28;20027;-64
2020/12/06 09:43:03;;;;;;;220.70;32.45;;;3.20;87.20;;;;;;5075340;28;20142;-64
2020/12/06 09:45:28;;;;;;;214.60;30.77;;;3.20;87.20;;;;;;5074022;28;20381;-65
2020/12/06 09:47:54;;;;;;;213.43;34.28;;;3.30;87.20;;;;;;5074192;28;20041;-64
2020/12/06 09:50:20;;;;;;;208.02;34.78;;;3.40;87.30;;;;;;5074230;28;20024;-64
2020/12/06 09:52:45;;;;;;;196.88;30.05;;;3.40;87.20;;;;;;5074089;28;20032;-65
2020/12/06 09:55:11;;;;;;;215.65;31.15;;;3.50;87.10;;;;;;5073927;28;20024;-64
2020/12/06 09:57:36;;;;;;;183.82;28.50;;;3.50;86.90;;;;;;5074783;28;20032;-64
2020/12/06 10:00:03;;;;;;;199.38;32.00;;;3.50;86.90;;;;;;5073545;28;20393;-64
2020/12/06 10:02:29;;;;;;;178.55;29.27;;;3.50;87.00;;;;;;5073805;28;20431;-64
2020/12/06 10:04:55;;;;;;;177.95;27.25;;;3.40;87.00;;;;;;5056545;28;20189;-64
2020/12/06 10:07:21;;;;;;;172.07;27.95;;;3.50;87.20;;;;;;5073831;28;20461;-66
2020/12/06 10:09:47;;;;;;;194.38;31.15;;;3.50;87.20;;;;;;5066300;28;20021;-65
2020/12/06 10:12:13;;;;;;;162.20;27.25;;;3.50;87.20;;;;;;5053612;28;20571;-64
2020/12/06 10:14:39;;;;;;;174.02;28.52;;;3.50;87.20;;;;;;5073651;28;20036;-65
2020/12/06 10:17:04;;;;;;;158.98;26.88;;;3.50;87.20;;;;;;5068199;28;20465;-66
2020/12/06 10:19:30;;;;;;;150.23;24.60;;;3.50;87.30;;;;;;5073227;28;20025;-64
2020/12/06 10:21:55;;;;;;;150.65;25.17;;;3.50;87.40;;;;;;5074879;28;20107;-66
2020/12/06 10:24:21;;;;;;;151.43;25.13;;;3.60;87.50;;;;;;5079228;28;20055;-65
2020/12/06 10:26:53;;;;;;;131.25;25.33;;;3.60;88.00;;;;;;5069902;28;20028;-65
2020/12/06 10:29:20;;;;;;;131.75;24.85;;;3.70;87.50;;;;;;5068755;28;20040;-65
2020/12/06 10:31:52;;;;;;;139.85;25.52;;;3.70;87.40;;;;;;5064334;28;20025;-67
2020/12/06 10:34:20;;;;;;;127.93;25.20;;;3.70;87.30;;;;;;5068509;28;20029;-65
2020/12/06 10:36:51;;;;;;;128.25;26.65;;;3.70;87.30;;;;;;5048499;28;20456;-65
2020/12/06 10:39:17;;;;;;;125.28;25.95;;;3.80;87.30;;;;;;5068713;28;20028;-66
2020/12/06 10:41:45;;;;;;;114.72;26.00;;;3.80;87.10;;;;;;5068765;28;20021;-65
2020/12/06 10:44:11;;;;;;;107.10;25.40;;;3.80;87.20;;;;;;5068076;28;20114;-65
2020/12/06 10:46:36;;;;;;;92.53;24.42;;;3.80;87.10;;;;;;5070096;28;20028;-68
2020/12/06 10:49:02;;;;;;;79.97;21.98;;;3.80;87.10;;;;;;5069433;28;20465;-65
2020/12/06 10:51:28;;;;;;;77.70;23.30;;;3.70;87.00;;;;;;5068610;28;20040;-66
2020/12/06 10:53:53;;;;;;;75.70;22.92;;;3.70;87.00;;;;;;5068037;28;20048;-66
2020/12/06 10:56:19;;;;;;;73.47;23.20;;;3.70;87.10;;;;;;5051180;28;20020;-65
2020/12/06 10:58:45;;;;;;;84.70;26.10;;;3.70;87.10;;;;;;5069435;28;20029;-65
2020/12/06 11:01:11;;;;;;;59.80;20.63;;;3.70;87.20;;;;;;5067674;28;20090;-65
2020/12/06 11:03:36;;;;;;;65.38;21.30;;;3.70;87.20;;;;;;5071703;28;20480;-65
2020/12/06 11:06:02;;;;;;;68.70;22.23;;;3.70;87.20;;;;;;5071715;28;20082;-65
2020/12/06 11:08:27;;;;;;;59.97;19.33;;;3.70;87.20;;;;;;5052572;28;20029;-65
2020/12/06 11:10:53;;;;;;;69.55;20.55;;;3.80;87.20;;;;;;5072145;28;20115;-65
2020/12/06 11:13:18;;;;;;;72.07;22.52;;;3.80;87.20;;;;;;5071554;28;20067;-65
2020/12/06 11:15:44;;;;;;;66.43;21.98;;;3.80;87.00;;;;;;5054916;28;20029;-64
2020/12/06 11:18:10;;;;;;;68.88;22.95;;;3.80;87.00;;;;;;5070254;28;20503;-66
2020/12/06 11:20:35;;;;;;;65.05;21.63;;;3.80;87.00;;;;;;5072455;28;20397;-65
2020/12/06 11:23:01;;;;;;;67.53;22.95;;;3.80;87.00;;;;;;5066310;28;20028;-65
2020/12/06 11:25:27;;;;;;;61.30;20.35;;;3.80;87.20;;;;;;5069951;28;20052;-65
2020/12/06 11:27:52;;;;;;;67.60;23.58;;;3.90;87.10;;;;;;5071908;28;20041;-65
2020/12/06 11:30:18;;;;;;;55.42;19.42;;;3.90;87.10;;;;;;5072693;28;20103;-65
2020/12/06 11:32:43;;;;;;;62.72;23.95;;;3.90;87.10;;;;;;5072189;28;20489;-65
2020/12/06 11:35:09;;;;;;;58.13;20.42;;;3.90;87.10;;;;;;5053959;28;20397;-65
2020/12/06 11:37:34;;;;;;;57.15;20.40;;;3.90;86.80;;;;;;5067290;28;20441;-65
2020/12/06 11:40:00;;;;;;;50.83;19.83;;;3.90;87.00;;;;;;5071743;28;20485;-64
2020/12/06 11:42:25;;;;;;;57.83;20.10;;;3.90;87.10;;;;;;5071138;28;20039;-65
2020/12/06 11:44:51;;;;;;;64.90;23.98;;;4.00;87.10;;;;;;5071967;28;20385;-64
2020/12/06 11:47:22;;;;;;;54.83;18.45;;;4.00;87.00;;;;;;5072613;28;20035;-64
2020/12/06 11:49:47;;;;;;;59.75;19.70;;;4.00;87.20;;;;;;5072028;28;20024;-64
2020/12/06 11:52:13;;;;;;;57.88;19.05;;;4.10;87.00;;;;;;5070757;28;20093;-64
2020/12/06 11:54:38;;;;;;;50.60;18.33;;;4.10;86.90;;;;;;5072195;28;20059;-64
2020/12/06 11:57:04;;;;;;;59.60;19.65;;;4.10;86.80;;;;;;5071024;28;20032;-65
2020/12/06 11:59:29;;;;;;;63.58;19.33;;;4.10;86.80;;;;;;5072079;28;20035;-65
2020/12/06 12:01:55;;;;;;;64.50;19.33;;;4.10;86.70;;;;;;5068627;28;20035;-65
2020/12/06 12:04:20;;;;;;;60.28;19.42;;;4.10;86.70;;;;;;5068756;28;20031;-65
2020/12/06 12:06:47;;;;;;;59.63;19.83;;;4.00;86.70;;;;;;5068162;28;20035;-66
2020/12/06 12:09:13;;;;;;;76.78;19.85;;;4.00;87.20;;;;;;5064416;28;20489;-65
2020/12/06 12:11:38;;;;;;;69.15;21.30;;;4.00;86.60;;;;;;5068328;28;20041;-65
2020/12/06 12:14:04;;;;;;;73.97;22.13;;;4.00;86.80;;;;;;5065604;28;20064;-65
2020/12/06 12:16:29;;;;;;;87.50;24.20;;;4.00;86.80;;;;;;5065234;28;20016;-66
2020/12/06 12:18:55;;;;;;;75.38;20.00;;;3.90;86.90;;;;;;5068146;28;20048;-65
2020/12/06 12:21:20;;;;;;;72.93;18.63;;;4.00;87.00;;;;;;5066852;28;20742;-66
2020/12/06 12:23:46;;;;;;;80.00;19.08;;;3.90;87.00;;;;;;5067579;28;20029;-64
2020/12/06 12:26:11;;;;;;;92.90;19.80;;;3.90;87.00;;;;;;5073113;28;20499;-66
2020/12/06 12:28:37;;;;;;;83.05;18.48;;;3.90;87.10;;;;;;5072591;28;20473;-65
2020/12/06 12:31:02;;;;;;;73.60;17.90;;;3.90;87.10;;;;;;5070371;28;20135;-66
2020/12/06 12:33:28;;;;;;;90.88;18.08;;;3.90;87.20;;;;;;5072465;28;20040;-65
2020/12/06 12:35:54;;;;;;;84.28;18.52;;;3.90;87.30;;;;;;5072127;28;20094;-66